sensor_id;sensor_type;location;lat;lon;timestamp;temperature;humidity
18339;DHT22;9295;44.484;11.240;2023-02-26T00:01:46;12.10;99.90
18339;DHT22;9295;44.484;11.240;2023-02-26T00:04:15;12.20;99.90
18339;DHT22;9295;44.484;11.240;2023-02-26T00:06:43;12.20;99.90
18339;DHT22;9295;44.484;11.240;2023-02-26T00:09:25;12.10;99.90
18339;DHT22;9295;44.484;11.240;2023-02-26T00:11:54;12.20;99.90
18339;DHT22;9295;44.484;11.240;2023-02-26T00:14:23;12.20;99.90
18339;DHT22;9295;44.484;11.240;2023-02-26T00:17:06;12.20;99.90
18339;DHT22;9295;44.484;11.240;2023-02-26T00:19:38;12.20;99.90
18339;DHT22;9295;44.484;11.240;2023-02-26T00:22:07;12.10;99.90
18339;DHT22;9295;44.484;11.240;2023-02-26T00:24:36;12.20;99.90
18339;DHT22;9295;44.484;11.240;2023-02-26T00:27:04;12.20;99.90
18339;DHT22;9295;44.484;11.240;2023-02-26T00:29:34;12.20;99.90
18339;DHT22;9295;44.484;11.240;2023-02-26T00:32:05;12.20;99.90
18339;DHT22;9295;44.484;11.240;2023-02-26T00:34:34;12.20;99.90
18339;DHT22;9295;44.484;11.240;2023-02-26T00:37:11;12.20;99.90
18339;DHT22;9295;44.484;11.240;2023-02-26T00:39:48;12.10;99.90
18339;DHT22;9295;44.484;11.240;2023-02-26T00:42:19;12.10;99.90
18339;DHT22;9295;44.484;11.240;2023-02-26T00:44:48;12.20;99.90
18339;DHT22;9295;44.484;11.240;2023-02-26T00:47:24;12.10;99.90
18339;DHT22;9295;44.484;11.240;2023-02-26T00:50:03;12.10;99.90
18339;DHT22;9295;44.484;11.240;2023-02-26T00:52:38;12.20;99.90
18339;DHT22;9295;44.484;11.240;2023-02-26T00:55:10;12.20;99.90
18339;DHT22;9295;44.484;11.240;2023-02-26T00:57:39;12.20;99.90
18339;DHT22;9295;44.484;11.240;2023-02-26T01:00:08;12.20;99.90
18339;DHT22;9295;44.484;11.240;2023-02-26T01:02:39;12.20;99.90
18339;DHT22;9295;44.484;11.240;2023-02-26T01:05:09;12.20;99.90
18339;DHT22;9295;44.484;11.240;2023-02-26T01:07:43;12.30;99.90
18339;DHT22;9295;44.484;11.240;2023-02-26T01:10:12;12.20;99.90
18339;DHT22;9295;44.484;11.240;2023-02-26T01:12:42;12.20;99.90
18339;DHT22;9295;44.484;11.240;2023-02-26T01:15:11;12.20;99.90
18339;DHT22;9295;44.484;11.240;2023-02-26T01:17:44;12.20;99.90
18339;DHT22;9295;44.484;11.240;2023-02-26T01:20:17;12.20;99.90
18339;DHT22;9295;44.484;11.240;2023-02-26T01:22:51;12.20;99.90
18339;DHT22;9295;44.484;11.240;2023-02-26T01:25:24;12.20;99.90
18339;DHT22;9295;44.484;11.240;2023-02-26T01:27:54;12.20;99.90
18339;DHT22;9295;44.484;11.240;2023-02-26T01:30:25;12.20;99.90
18339;DHT22;9295;44.484;11.240;2023-02-26T01:33:01;12.10;99.90
18339;DHT22;9295;44.484;11.240;2023-02-26T01:35:41;12.20;99.90
18339;DHT22;9295;44.484;11.240;2023-02-26T01:38:17;12.10;99.90
18339;DHT22;9295;44.484;11.240;2023-02-26T01:41:26;12.10;99.90
18339;DHT22;9295;44.484;11.240;2023-02-26T01:44:03;12.20;99.90
18339;DHT22;9295;44.484;11.240;2023-02-26T01:46:38;12.20;99.90
18339;DHT22;9295;44.484;11.240;2023-02-26T01:49:15;12.20;99.90
18339;DHT22;9295;44.484;11.240;2023-02-26T01:51:47;12.20;99.90
18339;DHT22;9295;44.484;11.240;2023-02-26T01:54:18;12.20;99.90
18339;DHT22;9295;44.484;11.240;2023-02-26T01:56:50;12.20;99.90
18339;DHT22;9295;44.484;11.240;2023-02-26T01:59:19;12.10;99.90
18339;DHT22;9295;44.484;11.240;2023-02-26T02:01:51;12.10;99.90
18339;DHT22;9295;44.484;11.240;2023-02-26T02:04:23;12.10;99.90
18339;DHT22;9295;44.484;11.240;2023-02-26T02:06:53;12.10;99.90
18339;DHT22;9295;44.484;11.240;2023-02-26T02:09:22;12.10;99.90
18339;DHT22;9295;44.484;11.240;2023-02-26T02:12:03;12.10;99.90
18339;DHT22;9295;44.484;11.240;2023-02-26T02:14:42;12.10;99.90
18339;DHT22;9295;44.484;11.240;2023-02-26T02:17:17;12.10;99.90
18339;DHT22;9295;44.484;11.240;2023-02-26T02:23:08;12.00;99.90
18339;DHT22;9295;44.484;11.240;2023-02-26T02:26:07;12.00;99.90
18339;DHT22;9295;44.484;11.240;2023-02-26T02:28:45;12.00;99.90
18339;DHT22;9295;44.484;11.240;2023-02-26T02:31:24;11.80;99.90
18339;DHT22;9295;44.484;11.240;2023-02-26T02:33:58;11.80;99.90
18339;DHT22;9295;44.484;11.240;2023-02-26T02:36:34;11.80;99.90
18339;DHT22;9295;44.484;11.240;2023-02-26T02:39:08;11.90;99.90
18339;DHT22;9295;44.484;11.240;2023-02-26T02:41:44;11.90;99.90
18339;DHT22;9295;44.484;11.240;2023-02-26T02:44:17;11.80;99.90
18339;DHT22;9295;44.484;11.240;2023-02-26T02:46:51;11.80;99.90
18339;DHT22;9295;44.484;11.240;2023-02-26T02:49:23;11.90;99.90
18339;DHT22;9295;44.484;11.240;2023-02-26T02:51:54;11.80;99.90
18339;DHT22;9295;44.484;11.240;2023-02-26T02:54:28;11.90;99.90
18339;DHT22;9295;44.484;11.240;2023-02-26T02:57:01;11.80;99.90
18339;DHT22;9295;44.484;11.240;2023-02-26T02:59:33;11.80;99.90
18339;DHT22;9295;44.484;11.240;2023-02-26T03:02:10;11.80;99.90
18339;DHT22;9295;44.484;11.240;2023-02-26T03:04:39;11.80;99.90
18339;DHT22;9295;44.484;11.240;2023-02-26T03:07:09;11.80;99.90
18339;DHT22;9295;44.484;11.240;2023-02-26T03:09:37;11.80;99.90
18339;DHT22;9295;44.484;11.240;2023-02-26T03:12:06;11.80;99.90
18339;DHT22;9295;44.484;11.240;2023-02-26T03:14:35;11.80;99.90
18339;DHT22;9295;44.484;11.240;2023-02-26T03:17:18;11.80;99.90
18339;DHT22;9295;44.484;11.240;2023-02-26T03:19:57;11.80;99.90
18339;DHT22;9295;44.484;11.240;2023-02-26T03:22:31;11.80;99.90
18339;DHT22;9295;44.484;11.240;2023-02-26T03:25:07;11.80;99.90
18339;DHT22;9295;44.484;11.240;2023-02-26T03:27:44;11.80;99.90
18339;DHT22;9295;44.484;11.240;2023-02-26T03:30:18;11.80;99.90
18339;DHT22;9295;44.484;11.240;2023-02-26T03:32:54;11.80;99.90
18339;DHT22;9295;44.484;11.240;2023-02-26T03:35:28;11.80;99.90
18339;DHT22;9295;44.484;11.240;2023-02-26T03:38:02;11.80;99.90
18339;DHT22;9295;44.484;11.240;2023-02-26T03:40:35;11.80;99.90
18339;DHT22;9295;44.484;11.240;2023-02-26T03:43:18;11.60;99.90
18339;DHT22;9295;44.484;11.240;2023-02-26T03:45:50;11.10;99.90
18339;DHT22;9295;44.484;11.240;2023-02-26T03:48:26;10.20;99.90
18339;DHT22;9295;44.484;11.240;2023-02-26T03:51:00;9.70;99.90
18339;DHT22;9295;44.484;11.240;2023-02-26T03:54:09;9.50;99.90
18339;DHT22;9295;44.484;11.240;2023-02-26T03:56:45;9.50;99.90
18339;DHT22;9295;44.484;11.240;2023-02-26T03:59:33;9.50;99.90
18339;DHT22;9295;44.484;11.240;2023-02-26T04:02:30;9.40;99.90
18339;DHT22;9295;44.484;11.240;2023-02-26T04:05:12;9.20;99.90
18339;DHT22;9295;44.484;11.240;2023-02-26T04:07:43;9.20;99.90
18339;DHT22;9295;44.484;11.240;2023-02-26T04:10:15;9.20;99.90
18339;DHT22;9295;44.484;11.240;2023-02-26T04:12:44;9.10;99.90
18339;DHT22;9295;44.484;11.240;2023-02-26T04:15:13;9.00;99.90
18339;DHT22;9295;44.484;11.240;2023-02-26T04:17:41;8.90;99.90
18339;DHT22;9295;44.484;11.240;2023-02-26T04:20:12;8.90;99.90
18339;DHT22;9295;44.484;11.240;2023-02-26T04:22:41;8.80;99.90
18339;DHT22;9295;44.484;11.240;2023-02-26T04:25:09;8.80;99.90
18339;DHT22;9295;44.484;11.240;2023-02-26T04:27:38;8.70;99.90
18339;DHT22;9295;44.484;11.240;2023-02-26T04:30:08;8.50;99.90
18339;DHT22;9295;44.484;11.240;2023-02-26T04:32:36;8.40;99.90
18339;DHT22;9295;44.484;11.240;2023-02-26T04:35:07;8.30;99.90
18339;DHT22;9295;44.484;11.240;2023-02-26T04:37:37;8.20;99.90
18339;DHT22;9295;44.484;11.240;2023-02-26T04:40:07;8.00;99.90
18339;DHT22;9295;44.484;11.240;2023-02-26T04:42:36;8.00;99.90
18339;DHT22;9295;44.484;11.240;2023-02-26T04:45:05;7.90;99.90
18339;DHT22;9295;44.484;11.240;2023-02-26T04:47:37;7.90;99.90
18339;DHT22;9295;44.484;11.240;2023-02-26T04:50:06;7.90;99.90
18339;DHT22;9295;44.484;11.240;2023-02-26T04:52:35;7.80;99.90
18339;DHT22;9295;44.484;11.240;2023-02-26T04:55:06;7.90;99.90
18339;DHT22;9295;44.484;11.240;2023-02-26T04:57:37;7.70;99.90
18339;DHT22;9295;44.484;11.240;2023-02-26T05:00:07;7.70;99.90
18339;DHT22;9295;44.484;11.240;2023-02-26T05:02:38;7.50;99.90
18339;DHT22;9295;44.484;11.240;2023-02-26T05:05:07;7.50;99.90
18339;DHT22;9295;44.484;11.240;2023-02-26T05:07:36;7.50;99.90
18339;DHT22;9295;44.484;11.240;2023-02-26T05:10:07;7.40;99.90
18339;DHT22;9295;44.484;11.240;2023-02-26T05:12:36;7.40;99.90
18339;DHT22;9295;44.484;11.240;2023-02-26T05:15:05;7.50;99.90
18339;DHT22;9295;44.484;11.240;2023-02-26T05:17:35;7.30;99.90
18339;DHT22;9295;44.484;11.240;2023-02-26T05:20:05;7.20;99.90
18339;DHT22;9295;44.484;11.240;2023-02-26T05:22:38;7.10;99.90
18339;DHT22;9295;44.484;11.240;2023-02-26T05:25:09;7.00;99.90
18339;DHT22;9295;44.484;11.240;2023-02-26T05:27:40;7.00;99.90
18339;DHT22;9295;44.484;11.240;2023-02-26T05:30:12;6.90;99.90
18339;DHT22;9295;44.484;11.240;2023-02-26T05:32:42;6.90;99.90
18339;DHT22;9295;44.484;11.240;2023-02-26T05:35:11;6.80;99.90
18339;DHT22;9295;44.484;11.240;2023-02-26T05:37:40;6.70;99.90
18339;DHT22;9295;44.484;11.240;2023-02-26T05:40:11;6.70;99.90
18339;DHT22;9295;44.484;11.240;2023-02-26T05:42:40;6.60;99.90
18339;DHT22;9295;44.484;11.240;2023-02-26T05:45:09;6.60;99.90
18339;DHT22;9295;44.484;11.240;2023-02-26T05:47:37;6.60;99.90
18339;DHT22;9295;44.484;11.240;2023-02-26T05:50:07;6.60;99.90
18339;DHT22;9295;44.484;11.240;2023-02-26T05:52:36;6.60;99.90
18339;DHT22;9295;44.484;11.240;2023-02-26T05:55:06;6.60;99.90
18339;DHT22;9295;44.484;11.240;2023-02-26T05:57:37;6.50;99.90
18339;DHT22;9295;44.484;11.240;2023-02-26T06:00:07;6.50;99.90
18339;DHT22;9295;44.484;11.240;2023-02-26T06:02:39;6.50;99.90
18339;DHT22;9295;44.484;11.240;2023-02-26T06:05:08;6.50;99.90
18339;DHT22;9295;44.484;11.240;2023-02-26T06:07:37;6.50;99.90
18339;DHT22;9295;44.484;11.240;2023-02-26T06:10:07;6.50;99.90
18339;DHT22;9295;44.484;11.240;2023-02-26T06:12:37;6.50;99.90
18339;DHT22;9295;44.484;11.240;2023-02-26T06:15:07;6.50;99.90
18339;DHT22;9295;44.484;11.240;2023-02-26T06:17:36;6.50;99.90
18339;DHT22;9295;44.484;11.240;2023-02-26T06:20:08;6.50;99.90
18339;DHT22;9295;44.484;11.240;2023-02-26T06:22:36;6.40;99.90
18339;DHT22;9295;44.484;11.240;2023-02-26T06:25:05;6.40;99.90
18339;DHT22;9295;44.484;11.240;2023-02-26T06:27:34;6.30;99.90
18339;DHT22;9295;44.484;11.240;2023-02-26T06:30:05;6.30;99.90
18339;DHT22;9295;44.484;11.240;2023-02-26T06:32:34;6.10;99.90
18339;DHT22;9295;44.484;11.240;2023-02-26T06:35:03;6.00;99.90
18339;DHT22;9295;44.484;11.240;2023-02-26T06:37:32;5.90;99.90
18339;DHT22;9295;44.484;11.240;2023-02-26T06:40:00;5.90;99.90
18339;DHT22;9295;44.484;11.240;2023-02-26T06:42:30;5.90;99.90
18339;DHT22;9295;44.484;11.240;2023-02-26T06:44:58;5.90;99.90
18339;DHT22;9295;44.484;11.240;2023-02-26T06:47:28;5.90;99.90
18339;DHT22;9295;44.484;11.240;2023-02-26T06:49:56;5.80;99.90
18339;DHT22;9295;44.484;11.240;2023-02-26T06:52:25;5.90;99.90
18339;DHT22;9295;44.484;11.240;2023-02-26T06:54:53;5.80;99.90
18339;DHT22;9295;44.484;11.240;2023-02-26T06:57:22;5.90;99.90
18339;DHT22;9295;44.484;11.240;2023-02-26T06:59:50;5.90;99.90
18339;DHT22;9295;44.484;11.240;2023-02-26T07:02:20;5.90;99.90
18339;DHT22;9295;44.484;11.240;2023-02-26T07:04:51;5.90;99.90
18339;DHT22;9295;44.484;11.240;2023-02-26T07:07:19;5.90;99.90
18339;DHT22;9295;44.484;11.240;2023-02-26T07:09:48;5.90;99.90
18339;DHT22;9295;44.484;11.240;2023-02-26T07:12:16;5.80;99.90
18339;DHT22;9295;44.484;11.240;2023-02-26T07:14:45;5.80;99.90
18339;DHT22;9295;44.484;11.240;2023-02-26T07:17:13;5.80;99.90
18339;DHT22;9295;44.484;11.240;2023-02-26T07:19:47;5.80;99.90
18339;DHT22;9295;44.484;11.240;2023-02-26T07:22:17;5.80;99.90
18339;DHT22;9295;44.484;11.240;2023-02-26T07:24:48;5.80;99.90
18339;DHT22;9295;44.484;11.240;2023-02-26T07:27:17;5.90;99.90
18339;DHT22;9295;44.484;11.240;2023-02-26T07:29:45;5.90;99.90
18339;DHT22;9295;44.484;11.240;2023-02-26T07:32:14;5.90;99.90
18339;DHT22;9295;44.484;11.240;2023-02-26T07:34:43;6.00;99.90
18339;DHT22;9295;44.484;11.240;2023-02-26T07:37:11;6.00;99.90
18339;DHT22;9295;44.484;11.240;2023-02-26T07:39:41;5.90;99.90
18339;DHT22;9295;44.484;11.240;2023-02-26T07:42:10;6.00;99.90
18339;DHT22;9295;44.484;11.240;2023-02-26T07:44:41;6.00;99.90
18339;DHT22;9295;44.484;11.240;2023-02-26T07:47:10;5.90;99.90
18339;DHT22;9295;44.484;11.240;2023-02-26T07:49:38;5.90;99.90
18339;DHT22;9295;44.484;11.240;2023-02-26T07:52:07;5.90;99.90
18339;DHT22;9295;44.484;11.240;2023-02-26T07:54:35;6.00;99.90
18339;DHT22;9295;44.484;11.240;2023-02-26T07:57:06;5.90;99.90
18339;DHT22;9295;44.484;11.240;2023-02-26T07:59:34;5.90;99.90
18339;DHT22;9295;44.484;11.240;2023-02-26T08:02:03;5.80;99.90
18339;DHT22;9295;44.484;11.240;2023-02-26T08:04:32;5.90;99.90
18339;DHT22;9295;44.484;11.240;2023-02-26T08:07:00;5.90;99.90
18339;DHT22;9295;44.484;11.240;2023-02-26T08:09:29;5.90;99.90
18339;DHT22;9295;44.484;11.240;2023-02-26T08:11:57;5.90;99.90
18339;DHT22;9295;44.484;11.240;2023-02-26T08:14:27;5.90;99.90
18339;DHT22;9295;44.484;11.240;2023-02-26T08:16:56;5.90;99.90
18339;DHT22;9295;44.484;11.240;2023-02-26T08:19:24;5.90;99.90
18339;DHT22;9295;44.484;11.240;2023-02-26T08:21:53;5.90;99.90
18339;DHT22;9295;44.484;11.240;2023-02-26T08:24:22;5.90;99.90
18339;DHT22;9295;44.484;11.240;2023-02-26T08:26:50;5.90;99.90
18339;DHT22;9295;44.484;11.240;2023-02-26T08:29:19;5.90;99.90
18339;DHT22;9295;44.484;11.240;2023-02-26T08:31:49;6.00;99.90
18339;DHT22;9295;44.484;11.240;2023-02-26T08:34:18;6.00;99.90
18339;DHT22;9295;44.484;11.240;2023-02-26T08:36:46;6.00;99.90
18339;DHT22;9295;44.484;11.240;2023-02-26T08:39:16;6.00;99.90
18339;DHT22;9295;44.484;11.240;2023-02-26T08:41:45;6.00;99.90
18339;DHT22;9295;44.484;11.240;2023-02-26T08:44:14;6.00;99.90
18339;DHT22;9295;44.484;11.240;2023-02-26T08:46:42;6.00;99.90
18339;DHT22;9295;44.484;11.240;2023-02-26T08:49:12;5.90;99.90
18339;DHT22;9295;44.484;11.240;2023-02-26T08:51:41;5.70;99.90
18339;DHT22;9295;44.484;11.240;2023-02-26T08:54:09;5.60;99.90
18339;DHT22;9295;44.484;11.240;2023-02-26T08:56:38;5.50;99.90
18339;DHT22;9295;44.484;11.240;2023-02-26T08:59:06;5.50;99.90
18339;DHT22;9295;44.484;11.240;2023-02-26T09:01:36;5.50;99.90
18339;DHT22;9295;44.484;11.240;2023-02-26T09:04:04;5.40;99.90
18339;DHT22;9295;44.484;11.240;2023-02-26T09:06:34;5.40;99.90
18339;DHT22;9295;44.484;11.240;2023-02-26T09:09:03;5.30;99.90
18339;DHT22;9295;44.484;11.240;2023-02-26T09:11:32;5.30;99.90
18339;DHT22;9295;44.484;11.240;2023-02-26T09:14:03;5.30;99.90
18339;DHT22;9295;44.484;11.240;2023-02-26T09:16:31;5.30;99.90
18339;DHT22;9295;44.484;11.240;2023-02-26T09:19:04;5.30;99.90
18339;DHT22;9295;44.484;11.240;2023-02-26T09:21:35;5.20;99.90
18339;DHT22;9295;44.484;11.240;2023-02-26T09:24:03;5.20;99.90
18339;DHT22;9295;44.484;11.240;2023-02-26T09:26:32;5.30;99.90
18339;DHT22;9295;44.484;11.240;2023-02-26T09:29:01;5.20;99.90
18339;DHT22;9295;44.484;11.240;2023-02-26T09:31:29;5.20;99.90
18339;DHT22;9295;44.484;11.240;2023-02-26T09:34:00;5.30;99.90
18339;DHT22;9295;44.484;11.240;2023-02-26T09:36:28;5.30;99.90
18339;DHT22;9295;44.484;11.240;2023-02-26T09:38:59;5.40;99.90
18339;DHT22;9295;44.484;11.240;2023-02-26T09:41:29;5.30;99.90
18339;DHT22;9295;44.484;11.240;2023-02-26T09:44:16;5.30;99.90
18339;DHT22;9295;44.484;11.240;2023-02-26T09:46:52;5.40;99.90
18339;DHT22;9295;44.484;11.240;2023-02-26T09:49:31;5.50;99.90
18339;DHT22;9295;44.484;11.240;2023-02-26T09:52:04;5.40;99.90
18339;DHT22;9295;44.484;11.240;2023-02-26T09:54:42;5.40;99.90
18339;DHT22;9295;44.484;11.240;2023-02-26T09:57:20;5.50;99.90
18339;DHT22;9295;44.484;11.240;2023-02-26T09:59:49;5.40;99.90
18339;DHT22;9295;44.484;11.240;2023-02-26T10:02:23;5.40;99.90
18339;DHT22;9295;44.484;11.240;2023-02-26T10:04:59;5.40;99.90
18339;DHT22;9295;44.484;11.240;2023-02-26T10:07:40;5.40;99.90
18339;DHT22;9295;44.484;11.240;2023-02-26T10:10:19;5.40;99.90
18339;DHT22;9295;44.484;11.240;2023-02-26T10:12:50;5.40;99.90
18339;DHT22;9295;44.484;11.240;2023-02-26T10:15:21;5.40;99.90
18339;DHT22;9295;44.484;11.240;2023-02-26T10:18:05;5.40;99.90
18339;DHT22;9295;44.484;11.240;2023-02-26T10:20:38;5.30;99.90
18339;DHT22;9295;44.484;11.240;2023-02-26T10:23:17;5.30;99.90
18339;DHT22;9295;44.484;11.240;2023-02-26T10:25:51;5.30;99.90
18339;DHT22;9295;44.484;11.240;2023-02-26T10:28:34;5.20;99.90
18339;DHT22;9295;44.484;11.240;2023-02-26T10:31:11;5.10;99.90
18339;DHT22;9295;44.484;11.240;2023-02-26T10:33:46;5.00;99.90
18339;DHT22;9295;44.484;11.240;2023-02-26T10:36:22;5.00;99.90
18339;DHT22;9295;44.484;11.240;2023-02-26T10:38:57;5.10;99.90
18339;DHT22;9295;44.484;11.240;2023-02-26T10:41:31;5.10;99.90
18339;DHT22;9295;44.484;11.240;2023-02-26T10:44:05;5.20;99.90
18339;DHT22;9295;44.484;11.240;2023-02-26T10:46:43;5.30;99.90
18339;DHT22;9295;44.484;11.240;2023-02-26T10:49:29;5.40;99.90
18339;DHT22;9295;44.484;11.240;2023-02-26T10:52:08;5.40;99.90
18339;DHT22;9295;44.484;11.240;2023-02-26T10:54:43;5.40;99.90
18339;DHT22;9295;44.484;11.240;2023-02-26T10:57:21;5.50;99.90
18339;DHT22;9295;44.484;11.240;2023-02-26T10:59:51;5.50;99.90
18339;DHT22;9295;44.484;11.240;2023-02-26T11:02:33;5.60;99.90
18339;DHT22;9295;44.484;11.240;2023-02-26T11:05:04;5.60;99.90
18339;DHT22;9295;44.484;11.240;2023-02-26T11:07:37;5.50;99.90
18339;DHT22;9295;44.484;11.240;2023-02-26T11:10:13;5.50;99.90
18339;DHT22;9295;44.484;11.240;2023-02-26T11:12:44;5.40;99.90
18339;DHT22;9295;44.484;11.240;2023-02-26T11:15:15;5.50;99.90
18339;DHT22;9295;44.484;11.240;2023-02-26T11:17:45;5.50;99.90
18339;DHT22;9295;44.484;11.240;2023-02-26T11:20:18;5.50;99.90
18339;DHT22;9295;44.484;11.240;2023-02-26T11:22:52;5.40;99.90
18339;DHT22;9295;44.484;11.240;2023-02-26T11:25:26;5.40;99.90
18339;DHT22;9295;44.484;11.240;2023-02-26T11:27:59;5.40;99.90
18339;DHT22;9295;44.484;11.240;2023-02-26T11:30:31;5.30;99.90
18339;DHT22;9295;44.484;11.240;2023-02-26T11:33:06;5.20;99.90
18339;DHT22;9295;44.484;11.240;2023-02-26T11:35:35;5.20;99.90
18339;DHT22;9295;44.484;11.240;2023-02-26T11:38:04;5.20;99.90
18339;DHT22;9295;44.484;11.240;2023-02-26T11:40:37;5.10;99.90
18339;DHT22;9295;44.484;11.240;2023-02-26T11:43:11;5.10;99.90
18339;DHT22;9295;44.484;11.240;2023-02-26T11:45:43;5.10;99.90
18339;DHT22;9295;44.484;11.240;2023-02-26T11:48:15;5.00;99.90
18339;DHT22;9295;44.484;11.240;2023-02-26T11:50:47;4.90;99.90
18339;DHT22;9295;44.484;11.240;2023-02-26T11:53:23;4.80;99.90
18339;DHT22;9295;44.484;11.240;2023-02-26T11:55:57;4.70;99.90
18339;DHT22;9295;44.484;11.240;2023-02-26T11:58:29;4.70;99.90
18339;DHT22;9295;44.484;11.240;2023-02-26T12:01:02;4.70;99.90
18339;DHT22;9295;44.484;11.240;2023-02-26T12:03:33;4.70;99.90
18339;DHT22;9295;44.484;11.240;2023-02-26T12:06:02;4.70;99.90
18339;DHT22;9295;44.484;11.240;2023-02-26T12:08:33;4.70;99.90
18339;DHT22;9295;44.484;11.240;2023-02-26T12:11:16;4.70;99.90
18339;DHT22;9295;44.484;11.240;2023-02-26T12:14:03;4.70;99.90
18339;DHT22;9295;44.484;11.240;2023-02-26T12:16:42;4.70;99.90
18339;DHT22;9295;44.484;11.240;2023-02-26T12:19:17;4.70;99.90
18339;DHT22;9295;44.484;11.240;2023-02-26T12:27:51;4.90;99.90
18339;DHT22;9295;44.484;11.240;2023-02-26T12:30:40;4.90;99.90
18339;DHT22;9295;44.484;11.240;2023-02-26T12:33:18;4.90;99.90
18339;DHT22;9295;44.484;11.240;2023-02-26T12:36:01;4.80;99.90
18339;DHT22;9295;44.484;11.240;2023-02-26T12:38:36;4.60;99.90
18339;DHT22;9295;44.484;11.240;2023-02-26T12:41:23;4.50;99.90
18339;DHT22;9295;44.484;11.240;2023-02-26T12:43:56;4.50;99.90
18339;DHT22;9295;44.484;11.240;2023-02-26T12:46:42;4.50;99.90
18339;DHT22;9295;44.484;11.240;2023-02-26T12:49:29;4.50;99.90
18339;DHT22;9295;44.484;11.240;2023-02-26T12:52:15;4.60;99.90
18339;DHT22;9295;44.484;11.240;2023-02-26T12:55:06;4.70;99.90
18339;DHT22;9295;44.484;11.240;2023-02-26T12:58:01;4.60;99.90
18339;DHT22;9295;44.484;11.240;2023-02-26T13:00:50;4.60;99.90
18339;DHT22;9295;44.484;11.240;2023-02-26T13:03:39;4.60;99.90
18339;DHT22;9295;44.484;11.240;2023-02-26T13:06:38;4.60;99.90
18339;DHT22;9295;44.484;11.240;2023-02-26T13:09:17;4.60;99.90
18339;DHT22;9295;44.484;11.240;2023-02-26T13:11:57;4.50;99.90
18339;DHT22;9295;44.484;11.240;2023-02-26T13:14:35;4.60;99.90
18339;DHT22;9295;44.484;11.240;2023-02-26T13:17:12;4.60;99.90
18339;DHT22;9295;44.484;11.240;2023-02-26T13:19:45;4.60;99.90
18339;DHT22;9295;44.484;11.240;2023-02-26T13:22:20;4.60;99.90
18339;DHT22;9295;44.484;11.240;2023-02-26T13:24:54;4.70;99.90
18339;DHT22;9295;44.484;11.240;2023-02-26T13:27:26;4.70;99.90
18339;DHT22;9295;44.484;11.240;2023-02-26T13:30:05;4.70;99.90
18339;DHT22;9295;44.484;11.240;2023-02-26T13:32:38;4.80;99.90
18339;DHT22;9295;44.484;11.240;2023-02-26T13:35:17;4.80;99.90
18339;DHT22;9295;44.484;11.240;2023-02-26T13:37:49;4.80;99.90
18339;DHT22;9295;44.484;11.240;2023-02-26T13:40:41;4.70;99.90
18339;DHT22;9295;44.484;11.240;2023-02-26T13:43:26;4.60;99.90
18339;DHT22;9295;44.484;11.240;2023-02-26T13:46:04;4.50;99.90
18339;DHT22;9295;44.484;11.240;2023-02-26T13:48:41;4.60;99.90
18339;DHT22;9295;44.484;11.240;2023-02-26T13:51:28;4.50;99.90
18339;DHT22;9295;44.484;11.240;2023-02-26T13:53:59;4.60;99.90
18339;DHT22;9295;44.484;11.240;2023-02-26T13:56:51;4.50;99.90
18339;DHT22;9295;44.484;11.240;2023-02-26T13:59:46;4.50;99.90
18339;DHT22;9295;44.484;11.240;2023-02-26T14:02:42;4.60;99.90
18339;DHT22;9295;44.484;11.240;2023-02-26T14:08:41;4.60;99.90
18339;DHT22;9295;44.484;11.240;2023-02-26T14:11:42;4.50;99.90
18339;DHT22;9295;44.484;11.240;2023-02-26T14:14:17;4.50;99.90
18339;DHT22;9295;44.484;11.240;2023-02-26T14:16:49;4.50;99.90
18339;DHT22;9295;44.484;11.240;2023-02-26T14:19:25;4.50;99.90
18339;DHT22;9295;44.484;11.240;2023-02-26T14:21:55;4.50;99.90
18339;DHT22;9295;44.484;11.240;2023-02-26T14:24:31;4.50;99.90
18339;DHT22;9295;44.484;11.240;2023-02-26T14:27:19;4.40;99.90
18339;DHT22;9295;44.484;11.240;2023-02-26T14:32:46;4.30;99.90
18339;DHT22;9295;44.484;11.240;2023-02-26T14:35:21;4.30;99.90
18339;DHT22;9295;44.484;11.240;2023-02-26T14:37:56;4.10;99.90
18339;DHT22;9295;44.484;11.240;2023-02-26T14:40:38;4.10;99.90
18339;DHT22;9295;44.484;11.240;2023-02-26T14:43:17;4.00;99.90
18339;DHT22;9295;44.484;11.240;2023-02-26T14:45:47;4.00;99.90
18339;DHT22;9295;44.484;11.240;2023-02-26T14:48:20;3.90;99.90
18339;DHT22;9295;44.484;11.240;2023-02-26T14:51:02;3.90;99.90
18339;DHT22;9295;44.484;11.240;2023-02-26T14:53:47;3.90;99.90
18339;DHT22;9295;44.484;11.240;2023-02-26T14:56:25;3.90;99.90
18339;DHT22;9295;44.484;11.240;2023-02-26T14:59:13;3.90;99.90
18339;DHT22;9295;44.484;11.240;2023-02-26T15:01:47;4.00;99.90
18339;DHT22;9295;44.484;11.240;2023-02-26T15:07:33;3.90;99.90
18339;DHT22;9295;44.484;11.240;2023-02-26T15:10:31;3.90;99.90
18339;DHT22;9295;44.484;11.240;2023-02-26T15:13:31;3.80;99.90
18339;DHT22;9295;44.484;11.240;2023-02-26T15:16:10;3.80;99.90
18339;DHT22;9295;44.484;11.240;2023-02-26T15:19:03;3.80;99.90
18339;DHT22;9295;44.484;11.240;2023-02-26T15:21:45;3.80;99.90
18339;DHT22;9295;44.484;11.240;2023-02-26T15:24:15;3.80;99.90
18339;DHT22;9295;44.484;11.240;2023-02-26T15:26:46;3.80;99.90
18339;DHT22;9295;44.484;11.240;2023-02-26T15:29:20;3.80;99.90
18339;DHT22;9295;44.484;11.240;2023-02-26T15:31:53;3.80;99.90
18339;DHT22;9295;44.484;11.240;2023-02-26T15:34:23;3.70;99.90
18339;DHT22;9295;44.484;11.240;2023-02-26T15:36:52;3.70;99.90
18339;DHT22;9295;44.484;11.240;2023-02-26T15:39:23;3.70;99.90
18339;DHT22;9295;44.484;11.240;2023-02-26T15:41:54;3.70;99.90
18339;DHT22;9295;44.484;11.240;2023-02-26T15:44:27;3.60;99.90
18339;DHT22;9295;44.484;11.240;2023-02-26T15:47:00;3.60;99.90
18339;DHT22;9295;44.484;11.240;2023-02-26T15:49:33;3.60;99.90
18339;DHT22;9295;44.484;11.240;2023-02-26T15:52:04;3.60;99.90
18339;DHT22;9295;44.484;11.240;2023-02-26T15:54:36;3.70;99.90
18339;DHT22;9295;44.484;11.240;2023-02-26T15:57:06;3.60;99.90
18339;DHT22;9295;44.484;11.240;2023-02-26T15:59:41;3.60;99.90
18339;DHT22;9295;44.484;11.240;2023-02-26T16:02:12;3.60;99.90
18339;DHT22;9295;44.484;11.240;2023-02-26T16:04:41;3.60;99.90
18339;DHT22;9295;44.484;11.240;2023-02-26T16:07:11;3.60;99.90
18339;DHT22;9295;44.484;11.240;2023-02-26T16:09:43;3.60;99.90
18339;DHT22;9295;44.484;11.240;2023-02-26T16:12:15;3.50;99.90
18339;DHT22;9295;44.484;11.240;2023-02-26T16:14:49;3.50;99.90
18339;DHT22;9295;44.484;11.240;2023-02-26T16:17:34;3.60;99.90
18339;DHT22;9295;44.484;11.240;2023-02-26T16:20:05;3.60;99.90
18339;DHT22;9295;44.484;11.240;2023-02-26T16:22:40;3.60;99.90
18339;DHT22;9295;44.484;11.240;2023-02-26T16:25:14;3.60;99.90
18339;DHT22;9295;44.484;11.240;2023-02-26T16:27:47;3.60;99.90
18339;DHT22;9295;44.484;11.240;2023-02-26T16:30:19;3.60;99.90
18339;DHT22;9295;44.484;11.240;2023-02-26T16:32:53;3.60;99.90
18339;DHT22;9295;44.484;11.240;2023-02-26T16:35:27;3.60;99.90
18339;DHT22;9295;44.484;11.240;2023-02-26T16:37:56;3.60;99.90
18339;DHT22;9295;44.484;11.240;2023-02-26T16:40:26;3.60;99.90
18339;DHT22;9295;44.484;11.240;2023-02-26T16:43:01;3.60;99.90